King Cove Airport

About
Name: King Cove Airport
Identifier:  KVC/PAVC
Owner:  State of Alaska DOT&PF - Central Region
Public/Private:  Public
Local Time:  18. Aug 04:49 AKDT
Description: King Cove Airport is a state-owned public-use airport located four miles northeast of the central business district of King Cove, a city in the Aleutians East Borough of the U.S. state of Alaska.
Source: Wikipedia
Location
Runways
Identifier Length (m/ft) Surface
7/25 3,500/3,500 Gravel
Flights per Day
2 flights
Distance: 30km (19mi)
Punctuality
81% (0 flights per day delayed)
Delay Average: 86 minutes
Current Weather
 13 C (Humidity: 93%)
  4kt (7km/h / 4mph) from 230°
  Overcast at 100 feet (30 meter)
  0km (0 mi.)
 Fog
 METAR PAVC 181242Z AUTO 23004KT 1/4SM FG OVC001 13/12 A3020 RMK AO2

Current Flights

Departures
Number Departure To Airline
Arrivals
Number Arrival From Airline

Current Delays

Departures
N/A
Arrivals
N/A

Destinations

Top Destinations
Airport Flights
per week
Seats
per week
  Anchorage (ANC) 0 - 0 0

Airlines & Planes

Top Airlines
Airline Flights
per Day
Seats
per Day
SkyBus International Airlines 0 -
Top Plane Types
Model Flights Seats
Pilatus PC-12 0.0/day - 0